Aeroporto :
LOGIN :

Iscrizione | Disclaimer

   EN    FR    IT 

 










Sommario :    VFR   VFR Marginale   IFR   IFR Intensivo   IFR Molto Intensivo
Visibilità : 
Base nubi : 
>= 8 km
>= 3000ft
5 / 8 km
1000 / 3000 ft
1500m / 5 km
500 / 1000 ft
800 / 1500m
200 / 500 ft
< 800m
< 200 ft
Simboli :   Temporali  Nebbia  Neve Forte  Precipitazioni Forti  Vento > 20 kt
SIGMETs :   Varie  Temporali  Ghiacco  Turbolenza  Onda orograficha  Ceneri Vulcaniche






- Altitudine del aeroporto : 238 ft
- Codice IATA : FAB


EGLF - Farnborough

ULTIMO METAR :
  • 141420Z AUTO 24012KT 9999 FEW048/// 13/02 Q1022

METARs OBSOLETI :
  • 141350Z 26009KT 230V300 9999 FEW047 13/02 Q1022
  • 141320Z 25011KT 220V280 9999 FEW049 13/02 Q1023
  • 141250Z 24010KT 210V290 9999 FEW046 13/02 Q1023
  • 141220Z AUTO 28008KT 230V330 9999 SCT048/// 13/01 Q1023
  • 141150Z AUTO 26009KT 210V310 9999 NCD 13/01 Q1024
  • 141120Z AUTO 24010KT 9999 NCD 12/01 Q1024
  • 141050Z AUTO 26006KT 210V310 9999 NCD 12/02 Q1024
  • 141020Z AUTO 25008KT 210V290 9999 NCD 12/01 Q1025
  • 140950Z AUTO 26007KT 220V310 9999 NCD 11/02 Q1025

TAF TAF EGLF
Valido dal 14 a 12 ore il 14 a 19 ore UTC


141056Z 1412/1419 28009KT 9999 FEW040
ATIS : +44 09063 800 400 (*282)



MetMap, La meteo Aeronautica in un colpo d'occhio ! - Copyright ORBIFLY Dicembre 2007 - Disclaimer

ORBIFLY MET'MAP TEAM :

Programmazione e sviluppo : Alexandra Zaïnal
Concezione : Baudouin d'Aumeries
Supporto tecnico e logistico : Manuel Goepfert
Aiuto : Marc-Olivier Méhu
Aiuto per la traduzione : Arnaldo La Scala




FONTI E CREDITI :

   NOAA